createdAt,value
2022-08-01T00:00:56.293Z,19.50
2022-08-01T00:05:01.023Z,19.40
2022-08-01T00:09:03.948Z,19.50
2022-08-01T00:13:06.817Z,19.50
2022-08-01T00:17:09.796Z,19.50
2022-08-01T00:21:13.905Z,19.50
2022-08-01T00:25:16.812Z,19.40
2022-08-01T00:30:10.036Z,19.40
2022-08-01T00:33:42.388Z,19.40
2022-08-01T00:37:46.511Z,19.40
2022-08-01T00:41:49.325Z,19.40
2022-08-01T00:46:02.805Z,19.40
2022-08-01T00:50:06.712Z,19.40
2022-08-01T00:54:10.988Z,19.40
2022-08-01T00:58:16.444Z,19.40
2022-08-01T01:02:20.701Z,19.40
2022-08-01T01:06:31.838Z,19.40
2022-08-01T01:10:42.813Z,19.40
2022-08-01T01:14:53.100Z,19.40
2022-08-01T01:18:59.035Z,19.40
2022-08-01T01:23:26.153Z,19.30
2022-08-01T01:27:41.635Z,19.30
2022-08-01T01:31:50.424Z,19.30
2022-08-01T01:35:55.649Z,19.40
2022-08-01T01:39:59.813Z,19.30
2022-08-01T01:44:03.736Z,19.30
2022-08-01T01:48:09.568Z,19.20
2022-08-01T01:52:15.178Z,19.10
2022-08-01T01:56:19.674Z,19.00
2022-08-01T02:00:23.275Z,18.80
2022-08-01T02:04:28.984Z,18.80
2022-08-01T02:08:33.035Z,18.70
2022-08-01T02:12:39.937Z,18.70
2022-08-01T02:16:44.955Z,18.60
2022-08-01T02:20:53.097Z,18.60
2022-08-01T02:25:01.352Z,18.60
2022-08-01T02:29:08.633Z,18.60
2022-08-01T02:33:18.193Z,18.60
2022-08-01T02:37:23.609Z,18.60
2022-08-01T02:41:28.968Z,18.70
2022-08-01T02:45:33.335Z,18.60
2022-08-01T02:49:41.248Z,18.60
2022-08-01T02:53:47.054Z,18.70
2022-08-01T02:57:56.757Z,18.60
2022-08-01T03:02:05.790Z,18.70
2022-08-01T03:06:09.489Z,18.60
2022-08-01T03:10:15.250Z,18.60
2022-08-01T03:14:20.046Z,18.60
2022-08-01T03:18:25.739Z,18.60
2022-08-01T03:22:31.093Z,18.60
2022-08-01T03:26:38.454Z,18.60
2022-08-01T03:30:42.718Z,18.60
2022-08-01T03:34:45.751Z,18.60
2022-08-01T03:38:51.471Z,18.60
2022-08-01T03:43:02.328Z,18.60
2022-08-01T03:47:09.491Z,18.60
2022-08-01T03:51:13.987Z,18.60
2022-08-01T03:55:18.812Z,18.60
2022-08-01T03:59:23.676Z,18.50
2022-08-01T04:03:27.081Z,18.50
2022-08-01T04:07:31.823Z,18.50
2022-08-01T04:11:35.337Z,18.50
2022-08-01T04:15:39.424Z,18.50
2022-08-01T04:19:42.298Z,18.50
2022-08-01T04:23:46.535Z,18.50
2022-08-01T04:27:52.728Z,18.60
2022-08-01T04:31:58.981Z,18.60
2022-08-01T04:36:04.973Z,18.60
2022-08-01T04:40:10.850Z,18.60
2022-08-01T04:44:14.321Z,18.60
2022-08-01T04:48:22.849Z,18.60
2022-08-01T04:52:34.096Z,18.70
2022-08-01T04:56:37.304Z,18.70
2022-08-01T05:00:40.165Z,18.70
2022-08-01T05:04:45.411Z,18.70
2022-08-01T05:08:48.213Z,18.70
2022-08-01T05:12:51.564Z,18.70
2022-08-01T05:16:54.661Z,18.70
2022-08-01T05:20:58.723Z,18.70
2022-08-01T05:25:01.618Z,18.70
2022-08-01T05:29:05.053Z,18.70
2022-08-01T05:33:07.786Z,18.70
2022-08-01T05:37:12.255Z,18.80
2022-08-01T05:41:15.115Z,18.80
2022-08-01T05:45:17.865Z,18.70
2022-08-01T05:49:20.930Z,18.80
2022-08-01T05:53:25.146Z,18.80
2022-08-01T05:57:27.945Z,18.80
2022-08-01T06:01:30.755Z,18.80
2022-08-01T06:05:33.502Z,18.90
2022-08-01T06:09:37.724Z,18.90
2022-08-01T06:13:45.606Z,18.90
2022-08-01T06:17:51.709Z,18.90
2022-08-01T06:21:54.519Z,18.90
2022-08-01T06:25:59.017Z,19.00
2022-08-01T06:30:01.873Z,19.10
2022-08-01T06:34:04.698Z,19.10
2022-08-01T06:38:07.483Z,19.10
2022-08-01T06:42:11.544Z,19.20
2022-08-01T06:46:14.352Z,19.30
2022-08-01T06:50:17.100Z,19.40
2022-08-01T06:54:19.873Z,19.40
2022-08-01T06:58:31.546Z,19.50
2022-08-01T07:02:34.573Z,19.50
2022-08-01T07:06:40.118Z,19.60
2022-08-01T07:10:44.147Z,19.50
2022-08-01T07:14:48.321Z,19.50
2022-08-01T07:18:51.054Z,19.50
2022-08-01T07:22:54.132Z,19.60
2022-08-01T07:26:59.829Z,19.70
2022-08-01T07:31:30.567Z,19.80
2022-08-01T07:35:43.875Z,19.90
2022-08-01T07:39:47.431Z,20.00
2022-08-01T07:43:57.338Z,20.00
2022-08-01T07:48:08.217Z,20.00
2022-08-01T07:52:12.332Z,20.10
2022-08-01T07:56:16.193Z,20.10
2022-08-01T08:00:19.750Z,20.10
2022-08-01T08:04:24.310Z,20.10
2022-08-01T08:08:27.355Z,20.10
2022-08-01T08:12:30.157Z,20.00
2022-08-01T08:16:32.918Z,20.00
2022-08-01T08:20:37.084Z,20.10
2022-08-01T08:24:46.556Z,20.20
2022-08-01T08:28:49.677Z,20.20
2022-08-01T08:32:52.472Z,20.10
2022-08-01T08:36:58.947Z,20.00
2022-08-01T08:41:01.995Z,20.00
2022-08-01T08:45:05.208Z,19.90
2022-08-01T08:49:21.212Z,19.80
2022-08-01T08:53:25.647Z,20.00
2022-08-01T08:57:40.318Z,20.10
2022-08-01T09:01:44.286Z,20.20
2022-08-01T09:05:50.522Z,20.40
2022-08-01T09:09:55.072Z,20.60
2022-08-01T09:14:05.912Z,20.90
2022-08-01T09:18:08.977Z,21.30
2022-08-01T09:22:14.256Z,21.50
2022-08-01T09:26:20.425Z,21.60
2022-08-01T09:30:26.223Z,21.60
2022-08-01T09:34:31.298Z,21.70
2022-08-01T09:38:34.118Z,21.80
2022-08-01T09:42:38.589Z,21.90
2022-08-01T09:46:52.508Z,22.00
2022-08-01T09:51:03.787Z,22.20
2022-08-01T09:55:24.199Z,22.40
2022-08-01T09:59:57.975Z,22.80
2022-08-01T10:04:17.485Z,22.90
2022-08-01T10:08:23.443Z,22.80
2022-08-01T10:12:34.314Z,22.80
2022-08-01T10:16:38.882Z,22.60
2022-08-01T10:20:43.742Z,22.70
2022-08-01T10:24:56.026Z,22.80
2022-08-01T10:28:59.119Z,22.70
2022-08-01T10:33:05.760Z,22.40
2022-08-01T10:37:12.452Z,22.20
2022-08-01T10:41:17.428Z,21.90
2022-08-01T10:45:20.673Z,21.60
2022-08-01T10:49:29.271Z,21.50
2022-08-01T10:53:49.887Z,21.40
2022-08-01T10:57:53.243Z,21.60
2022-08-01T11:02:00.412Z,21.80
2022-08-01T11:06:06.338Z,21.80
2022-08-01T11:10:18.895Z,21.90
2022-08-01T11:14:53.671Z,21.90
2022-08-01T11:18:52.766Z,21.90
2022-08-01T11:23:28.531Z,21.80
2022-08-01T11:27:33.669Z,21.50
2022-08-01T11:31:37.813Z,21.30
2022-08-01T11:36:17.322Z,21.30
2022-08-01T11:40:25.050Z,21.40
2022-08-01T11:44:30.119Z,21.40
2022-08-01T11:48:33.195Z,21.20
2022-08-01T11:52:37.072Z,21.00
2022-08-01T11:56:44.817Z,20.90
2022-08-01T12:00:54.203Z,20.80
2022-08-01T12:04:59.676Z,21.00
2022-08-01T12:09:20.887Z,21.10
2022-08-01T12:13:25.033Z,21.20
2022-08-01T12:17:35.697Z,21.40
2022-08-01T12:21:40.276Z,21.70
2022-08-01T12:25:44.717Z,21.90
2022-08-01T12:29:49.087Z,21.90
2022-08-01T12:33:51.891Z,21.90
2022-08-01T12:37:56.271Z,22.00
2022-08-01T12:41:59.692Z,22.00
2022-08-01T12:46:05.073Z,22.00
2022-08-01T12:50:10.465Z,22.10
2022-08-01T12:54:13.305Z,22.20
2022-08-01T12:58:18.097Z,22.10
2022-08-01T13:02:33.038Z,22.00
2022-08-01T13:06:36.952Z,21.90
2022-08-01T13:10:39.917Z,21.70
2022-08-01T13:14:42.695Z,21.80
2022-08-01T13:18:52.796Z,21.90
2022-08-01T13:22:55.866Z,22.20
2022-08-01T13:27:02.093Z,22.50
2022-08-01T13:31:07.912Z,22.80
2022-08-01T13:35:14.283Z,22.90
2022-08-01T13:39:35.050Z,22.70
2022-08-01T13:43:58.657Z,22.60
2022-08-01T13:48:12.268Z,22.30
2022-08-01T13:52:17.367Z,22.20
2022-08-01T13:56:22.656Z,22.10
2022-08-01T14:00:25.638Z,22.10
2022-08-01T14:04:29.099Z,22.30
2022-08-01T14:08:37.526Z,22.30
2022-08-01T14:12:40.513Z,22.10
2022-08-01T14:16:45.809Z,22.10
2022-08-01T14:20:48.737Z,22.20
2022-08-01T14:24:59.501Z,22.30
2022-08-01T14:29:04.660Z,22.10
2022-08-01T14:33:07.552Z,22.20
2022-08-01T14:37:10.668Z,22.30
2022-08-01T14:41:15.968Z,22.40
2022-08-01T14:45:18.806Z,22.70
2022-08-01T14:49:21.977Z,22.80
2022-08-01T14:53:24.983Z,22.80
2022-08-01T14:57:29.162Z,22.80
2022-08-01T15:01:32.018Z,23.10
2022-08-01T15:05:34.913Z,23.30
2022-08-01T15:09:37.922Z,23.50
2022-08-01T15:13:42.954Z,23.90
2022-08-01T15:17:46.008Z,24.20
2022-08-01T15:21:48.887Z,24.70
2022-08-01T15:25:52.061Z,24.80
2022-08-01T15:29:57.129Z,24.90
2022-08-01T15:34:01.813Z,24.60
2022-08-01T15:38:06.555Z,24.50
2022-08-01T15:42:11.651Z,24.40
2022-08-01T15:46:15.756Z,24.70
2022-08-01T15:50:18.643Z,24.50
2022-08-01T15:54:21.809Z,24.50
2022-08-01T15:58:24.877Z,24.90
2022-08-01T16:02:29.246Z,25.20
2022-08-01T16:06:32.932Z,25.40
2022-08-01T16:10:35.858Z,25.20
2022-08-01T16:14:38.645Z,25.00
2022-08-01T16:18:42.811Z,25.10
2022-08-01T16:22:45.614Z,25.30
2022-08-01T16:26:48.398Z,25.30
2022-08-01T16:31:09.679Z,25.50
2022-08-01T16:35:15.461Z,25.50
2022-08-01T16:39:23.061Z,25.50
2022-08-01T16:43:26.434Z,25.70
2022-08-01T16:47:29.224Z,25.80
2022-08-01T16:51:34.143Z,26.00
2022-08-01T16:55:49.418Z,26.00
2022-08-01T16:59:53.677Z,25.80
2022-08-01T17:03:59.531Z,25.70
2022-08-01T17:08:06.223Z,25.30
2022-08-01T17:12:10.610Z,24.60
2022-08-01T17:16:13.800Z,24.50
2022-08-01T17:20:16.586Z,24.30
2022-08-01T17:24:21.791Z,24.00
2022-08-01T17:28:26.089Z,23.80
2022-08-01T17:32:28.956Z,23.70
2022-08-01T17:36:31.866Z,23.50
2022-08-01T17:40:40.803Z,23.00
2022-08-01T17:44:49.057Z,23.10
2022-08-01T17:48:54.915Z,23.00
2022-08-01T17:52:57.813Z,22.90
2022-08-01T17:57:01.951Z,22.70
2022-08-01T18:01:04.991Z,22.50
2022-08-01T18:05:10.750Z,22.40
2022-08-01T18:09:13.757Z,22.30
2022-08-01T18:13:18.329Z,22.20
2022-08-01T18:17:23.439Z,22.00
2022-08-01T18:21:26.381Z,21.90
2022-08-01T18:25:30.346Z,21.70
2022-08-01T18:29:47.845Z,21.60
2022-08-01T18:33:51.341Z,21.40
2022-08-01T18:37:55.404Z,21.30
2022-08-01T18:42:00.091Z,21.20
2022-08-01T18:46:06.286Z,21.10
2022-08-01T18:50:10.508Z,21.10
2022-08-01T18:54:13.865Z,21.00
2022-08-01T18:58:16.874Z,21.00
2022-08-01T19:02:21.119Z,20.90
2022-08-01T19:06:24.679Z,20.80
2022-08-01T19:10:27.519Z,20.70
2022-08-01T19:14:30.555Z,20.70
2022-08-01T19:18:35.038Z,20.60
2022-08-01T19:22:38.681Z,20.50
2022-08-01T19:26:46.966Z,20.40
2022-08-01T19:30:53.451Z,20.20
2022-08-01T19:35:04.840Z,20.10
2022-08-01T19:39:10.034Z,20.00
2022-08-01T19:43:13.708Z,19.90
2022-08-01T19:47:21.525Z,19.80
2022-08-01T19:51:33.333Z,19.70
2022-08-01T19:55:40.606Z,19.60
2022-08-01T20:00:06.295Z,19.50
2022-08-01T20:04:10.137Z,19.40
2022-08-01T20:08:16.493Z,19.20
2022-08-01T20:12:21.931Z,19.20
2022-08-01T20:16:25.107Z,19.10
2022-08-01T20:20:28.725Z,19.00
2022-08-01T20:24:38.105Z,19.00
2022-08-01T20:28:50.589Z,19.00
2022-08-01T20:32:54.605Z,19.10
2022-08-01T20:37:06.741Z,19.10
2022-08-01T20:41:11.808Z,19.10
2022-08-01T20:45:18.715Z,19.20
2022-08-01T20:49:23.331Z,19.20
2022-08-01T20:53:26.318Z,19.20
2022-08-01T20:57:32.301Z,19.20
2022-08-01T21:01:40.054Z,19.10
2022-08-01T21:05:55.661Z,19.10
2022-08-01T21:10:05.907Z,19.10
2022-08-01T21:14:13.246Z,19.10
2022-08-01T21:18:19.917Z,19.00
2022-08-01T21:22:29.738Z,19.00
2022-08-01T21:26:35.747Z,19.10
2022-08-01T21:30:55.491Z,19.10
2022-08-01T21:35:01.363Z,19.00
2022-08-01T21:39:05.815Z,18.80
2022-08-01T21:43:12.945Z,18.70
2022-08-01T21:47:19.605Z,18.60
2022-08-01T21:51:35.326Z,18.40
2022-08-01T21:55:51.819Z,18.30
2022-08-01T22:00:06.446Z,18.20
2022-08-01T22:04:16.037Z,18.20
2022-08-01T22:08:24.804Z,18.10
2022-08-01T22:12:28.279Z,18.00
2022-08-01T22:16:33.251Z,18.00
2022-08-01T22:20:37.930Z,18.00
2022-08-01T22:24:41.947Z,17.90
2022-08-01T22:28:45.729Z,17.80
2022-08-01T22:33:07.112Z,17.70
2022-08-01T22:37:14.782Z,17.70
2022-08-01T22:41:20.038Z,17.70
2022-08-01T22:45:26.736Z,17.60
2022-08-01T22:49:35.777Z,17.60
2022-08-01T22:53:51.325Z,17.60
2022-08-01T22:57:59.261Z,17.50
2022-08-01T23:02:03.918Z,17.40
2022-08-01T23:06:12.319Z,17.30
2022-08-01T23:10:22.031Z,17.20
2022-08-01T23:14:25.437Z,17.10
2022-08-01T23:18:29.841Z,17.10
2022-08-01T23:22:34.214Z,17.00
2022-08-01T23:26:38.937Z,17.00
2022-08-01T23:30:41.876Z,16.90
2022-08-01T23:34:45.805Z,16.80
2022-08-01T23:38:48.765Z,16.80
2022-08-01T23:42:53.487Z,16.70
2022-08-01T23:46:56.244Z,16.60
2022-08-01T23:50:59.024Z,16.50
2022-08-01T23:55:11.566Z,16.60
2022-08-01T23:59:19.175Z,16.60
